sensor_id;sensor_type;location;lat;lon;timestamp;temperature;humidity
47174;DHT22;36730;49.036;9.094;2023-07-13T00:02:14;27.70;56.40
47174;DHT22;36730;49.036;9.094;2023-07-13T00:04:40;27.70;56.30
47174;DHT22;36730;49.036;9.094;2023-07-13T00:07:06;27.70;56.40
47174;DHT22;36730;49.036;9.094;2023-07-13T00:09:32;27.70;56.40
47174;DHT22;36730;49.036;9.094;2023-07-13T00:11:58;27.70;56.30
47174;DHT22;36730;49.036;9.094;2023-07-13T00:14:23;27.70;56.30
47174;DHT22;36730;49.036;9.094;2023-07-13T00:16:49;27.70;56.00
47174;DHT22;36730;49.036;9.094;2023-07-13T00:19:15;27.70;55.90
47174;DHT22;36730;49.036;9.094;2023-07-13T00:21:41;27.70;55.60
47174;DHT22;36730;49.036;9.094;2023-07-13T00:24:07;27.70;55.50
47174;DHT22;36730;49.036;9.094;2023-07-13T00:26:33;27.60;55.30
47174;DHT22;36730;49.036;9.094;2023-07-13T00:28:59;27.60;55.40
47174;DHT22;36730;49.036;9.094;2023-07-13T00:31:24;27.60;55.20
47174;DHT22;36730;49.036;9.094;2023-07-13T00:33:50;27.60;55.10
47174;DHT22;36730;49.036;9.094;2023-07-13T00:36:15;27.60;54.90
47174;DHT22;36730;49.036;9.094;2023-07-13T00:38:41;27.60;55.00
47174;DHT22;36730;49.036;9.094;2023-07-13T00:41:07;27.60;54.70
47174;DHT22;36730;49.036;9.094;2023-07-13T00:43:32;27.60;54.50
47174;DHT22;36730;49.036;9.094;2023-07-13T00:48:24;27.50;54.20
47174;DHT22;36730;49.036;9.094;2023-07-13T00:50:51;27.50;54.20
47174;DHT22;36730;49.036;9.094;2023-07-13T00:53:19;27.50;54.20
47174;DHT22;36730;49.036;9.094;2023-07-13T00:55:45;27.50;54.20
47174;DHT22;36730;49.036;9.094;2023-07-13T00:58:11;27.50;53.90
47174;DHT22;36730;49.036;9.094;2023-07-13T01:00:36;27.50;54.00
47174;DHT22;36730;49.036;9.094;2023-07-13T01:03:03;27.50;53.90
47174;DHT22;36730;49.036;9.094;2023-07-13T01:05:30;27.50;53.70
47174;DHT22;36730;49.036;9.094;2023-07-13T01:07:57;27.50;53.80
47174;DHT22;36730;49.036;9.094;2023-07-13T01:10:23;27.50;53.80
47174;DHT22;36730;49.036;9.094;2023-07-13T01:12:49;27.50;53.60
47174;DHT22;36730;49.036;9.094;2023-07-13T01:17:58;27.50;53.30
47174;DHT22;36730;49.036;9.094;2023-07-13T01:20:24;27.50;53.30
47174;DHT22;36730;49.036;9.094;2023-07-13T01:22:50;27.50;53.30
47174;DHT22;36730;49.036;9.094;2023-07-13T01:25:16;27.40;53.30
47174;DHT22;36730;49.036;9.094;2023-07-13T01:27:41;27.40;53.10
47174;DHT22;36730;49.036;9.094;2023-07-13T01:30:07;27.40;53.20
47174;DHT22;36730;49.036;9.094;2023-07-13T01:32:33;27.40;53.10
47174;DHT22;36730;49.036;9.094;2023-07-13T01:34:59;27.40;53.00
47174;DHT22;36730;49.036;9.094;2023-07-13T01:37:25;27.40;52.90
47174;DHT22;36730;49.036;9.094;2023-07-13T01:39:50;27.40;52.90
47174;DHT22;36730;49.036;9.094;2023-07-13T01:42:16;27.40;52.90
47174;DHT22;36730;49.036;9.094;2023-07-13T01:44:41;27.40;52.70
47174;DHT22;36730;49.036;9.094;2023-07-13T01:47:07;27.40;52.70
47174;DHT22;36730;49.036;9.094;2023-07-13T01:49:33;27.40;52.80
47174;DHT22;36730;49.036;9.094;2023-07-13T01:51:58;27.40;52.70
47174;DHT22;36730;49.036;9.094;2023-07-13T01:54:23;27.40;52.50
47174;DHT22;36730;49.036;9.094;2023-07-13T01:56:49;27.30;52.50
47174;DHT22;36730;49.036;9.094;2023-07-13T01:59:14;27.30;52.60
47174;DHT22;36730;49.036;9.094;2023-07-13T02:01:40;27.30;52.60
47174;DHT22;36730;49.036;9.094;2023-07-13T02:04:05;27.30;52.60
47174;DHT22;36730;49.036;9.094;2023-07-13T02:06:31;27.30;52.60
47174;DHT22;36730;49.036;9.094;2023-07-13T02:08:57;27.30;52.40
47174;DHT22;36730;49.036;9.094;2023-07-13T02:11:23;27.30;52.50
47174;DHT22;36730;49.036;9.094;2023-07-13T02:13:48;27.20;52.50
47174;DHT22;36730;49.036;9.094;2023-07-13T02:16:14;27.20;52.50
47174;DHT22;36730;49.036;9.094;2023-07-13T02:18:39;27.20;52.60
47174;DHT22;36730;49.036;9.094;2023-07-13T02:21:04;27.20;52.60
47174;DHT22;36730;49.036;9.094;2023-07-13T02:23:30;27.20;52.40
47174;DHT22;36730;49.036;9.094;2023-07-13T02:25:56;27.20;52.50
47174;DHT22;36730;49.036;9.094;2023-07-13T02:28:22;27.20;52.50
47174;DHT22;36730;49.036;9.094;2023-07-13T02:30:47;27.20;52.40
47174;DHT22;36730;49.036;9.094;2023-07-13T02:33:13;27.20;52.60
47174;DHT22;36730;49.036;9.094;2023-07-13T02:35:38;27.20;52.60
47174;DHT22;36730;49.036;9.094;2023-07-13T02:38:04;27.20;52.50
47174;DHT22;36730;49.036;9.094;2023-07-13T02:40:29;27.20;52.60
47174;DHT22;36730;49.036;9.094;2023-07-13T02:42:58;27.20;52.60
47174;DHT22;36730;49.036;9.094;2023-07-13T02:45:23;27.20;52.70
47174;DHT22;36730;49.036;9.094;2023-07-13T02:47:49;27.20;52.70
47174;DHT22;36730;49.036;9.094;2023-07-13T02:50:14;27.10;52.60
47174;DHT22;36730;49.036;9.094;2023-07-13T02:52:40;27.10;52.70
47174;DHT22;36730;49.036;9.094;2023-07-13T02:55:05;27.10;52.80
47174;DHT22;36730;49.036;9.094;2023-07-13T02:57:31;27.10;52.80
47174;DHT22;36730;49.036;9.094;2023-07-13T02:59:58;27.10;53.00
47174;DHT22;36730;49.036;9.094;2023-07-13T03:02:23;27.10;52.30
47174;DHT22;36730;49.036;9.094;2023-07-13T03:04:49;27.00;52.10
47174;DHT22;36730;49.036;9.094;2023-07-13T03:07:14;26.90;52.40
47174;DHT22;36730;49.036;9.094;2023-07-13T03:09:40;26.70;52.50
47174;DHT22;36730;49.036;9.094;2023-07-13T03:12:06;26.60;52.60
47174;DHT22;36730;49.036;9.094;2023-07-13T03:14:32;26.60;52.90
47174;DHT22;36730;49.036;9.094;2023-07-13T03:16:57;26.60;53.00
47174;DHT22;36730;49.036;9.094;2023-07-13T03:19:23;26.50;52.80
47174;DHT22;36730;49.036;9.094;2023-07-13T03:21:48;26.40;52.60
47174;DHT22;36730;49.036;9.094;2023-07-13T03:24:14;26.30;53.00
47174;DHT22;36730;49.036;9.094;2023-07-13T03:26:40;26.20;53.00
47174;DHT22;36730;49.036;9.094;2023-07-13T03:29:05;26.10;53.20
47174;DHT22;36730;49.036;9.094;2023-07-13T03:31:32;26.10;53.30
47174;DHT22;36730;49.036;9.094;2023-07-13T03:33:58;26.00;53.50
47174;DHT22;36730;49.036;9.094;2023-07-13T03:36:24;26.00;53.80
47174;DHT22;36730;49.036;9.094;2023-07-13T03:38:52;25.90;54.40
47174;DHT22;36730;49.036;9.094;2023-07-13T03:41:18;25.80;54.10
47174;DHT22;36730;49.036;9.094;2023-07-13T03:43:44;25.80;53.60
47174;DHT22;36730;49.036;9.094;2023-07-13T03:46:09;25.70;53.80
47174;DHT22;36730;49.036;9.094;2023-07-13T03:48:35;25.70;54.70
47174;DHT22;36730;49.036;9.094;2023-07-13T03:51:01;25.60;53.80
47174;DHT22;36730;49.036;9.094;2023-07-13T03:53:26;25.50;54.60
47174;DHT22;36730;49.036;9.094;2023-07-13T03:55:52;25.40;54.80
47174;DHT22;36730;49.036;9.094;2023-07-13T03:58:25;25.40;55.30
47174;DHT22;36730;49.036;9.094;2023-07-13T04:00:52;25.30;55.00
47174;DHT22;36730;49.036;9.094;2023-07-13T04:03:17;25.20;54.60
47174;DHT22;36730;49.036;9.094;2023-07-13T04:05:42;25.20;55.60
47174;DHT22;36730;49.036;9.094;2023-07-13T04:08:08;25.10;56.10
47174;DHT22;36730;49.036;9.094;2023-07-13T04:10:34;25.00;55.50
47174;DHT22;36730;49.036;9.094;2023-07-13T04:12:59;25.00;55.50
47174;DHT22;36730;49.036;9.094;2023-07-13T04:15:25;25.00;57.10
47174;DHT22;36730;49.036;9.094;2023-07-13T04:17:51;24.90;56.50
47174;DHT22;36730;49.036;9.094;2023-07-13T04:20:16;24.90;56.90
47174;DHT22;36730;49.036;9.094;2023-07-13T04:22:42;24.80;56.70
47174;DHT22;36730;49.036;9.094;2023-07-13T04:25:07;24.80;57.30
47174;DHT22;36730;49.036;9.094;2023-07-13T04:27:33;24.80;58.00
47174;DHT22;36730;49.036;9.094;2023-07-13T04:29:58;24.80;58.70
47174;DHT22;36730;49.036;9.094;2023-07-13T04:32:24;24.70;58.30
47174;DHT22;36730;49.036;9.094;2023-07-13T04:34:49;24.60;59.40
47174;DHT22;36730;49.036;9.094;2023-07-13T04:37:18;24.60;60.00
47174;DHT22;36730;49.036;9.094;2023-07-13T04:39:44;24.60;61.20
47174;DHT22;36730;49.036;9.094;2023-07-13T04:42:09;24.50;61.40
47174;DHT22;36730;49.036;9.094;2023-07-13T04:44:35;24.40;61.90
47174;DHT22;36730;49.036;9.094;2023-07-13T04:47:00;24.40;62.50
47174;DHT22;36730;49.036;9.094;2023-07-13T04:49:26;24.40;62.00
47174;DHT22;36730;49.036;9.094;2023-07-13T04:51:51;24.40;63.30
47174;DHT22;36730;49.036;9.094;2023-07-13T04:54:16;24.30;63.60
47174;DHT22;36730;49.036;9.094;2023-07-13T04:56:42;24.30;64.10
47174;DHT22;36730;49.036;9.094;2023-07-13T04:59:07;24.20;64.00
47174;DHT22;36730;49.036;9.094;2023-07-13T05:01:33;24.10;63.00
47174;DHT22;36730;49.036;9.094;2023-07-13T05:03:59;24.10;65.00
47174;DHT22;36730;49.036;9.094;2023-07-13T05:06:25;24.10;64.50
47174;DHT22;36730;49.036;9.094;2023-07-13T05:08:50;24.10;65.50
47174;DHT22;36730;49.036;9.094;2023-07-13T05:11:17;24.10;64.80
47174;DHT22;36730;49.036;9.094;2023-07-13T05:13:43;24.10;65.90
47174;DHT22;36730;49.036;9.094;2023-07-13T05:16:08;24.10;65.50
47174;DHT22;36730;49.036;9.094;2023-07-13T05:18:34;24.10;65.20
47174;DHT22;36730;49.036;9.094;2023-07-13T05:21:01;24.10;65.00
47174;DHT22;36730;49.036;9.094;2023-07-13T05:23:26;24.00;65.50
47174;DHT22;36730;49.036;9.094;2023-07-13T05:25:52;24.00;64.80
47174;DHT22;36730;49.036;9.094;2023-07-13T05:28:18;24.00;66.30
47174;DHT22;36730;49.036;9.094;2023-07-13T05:30:46;24.00;66.90
47174;DHT22;36730;49.036;9.094;2023-07-13T05:33:12;24.00;67.50
47174;DHT22;36730;49.036;9.094;2023-07-13T05:35:38;24.00;67.10
47174;DHT22;36730;49.036;9.094;2023-07-13T05:38:03;24.00;67.30
47174;DHT22;36730;49.036;9.094;2023-07-13T05:40:29;23.90;66.80
47174;DHT22;36730;49.036;9.094;2023-07-13T05:42:54;23.90;68.10
47174;DHT22;36730;49.036;9.094;2023-07-13T05:45:19;23.90;67.30
47174;DHT22;36730;49.036;9.094;2023-07-13T05:47:45;23.90;68.60
47174;DHT22;36730;49.036;9.094;2023-07-13T05:50:10;24.00;68.40
47174;DHT22;36730;49.036;9.094;2023-07-13T05:52:36;24.00;68.90
47174;DHT22;36730;49.036;9.094;2023-07-13T05:55:01;24.00;68.90
47174;DHT22;36730;49.036;9.094;2023-07-13T05:57:28;24.00;69.20
47174;DHT22;36730;49.036;9.094;2023-07-13T05:59:53;24.00;69.30
47174;DHT22;36730;49.036;9.094;2023-07-13T06:02:19;24.00;69.60
47174;DHT22;36730;49.036;9.094;2023-07-13T06:04:44;24.00;68.50
47174;DHT22;36730;49.036;9.094;2023-07-13T06:07:10;24.10;69.40
47174;DHT22;36730;49.036;9.094;2023-07-13T06:09:35;24.10;70.10
47174;DHT22;36730;49.036;9.094;2023-07-13T06:12:01;24.10;68.80
47174;DHT22;36730;49.036;9.094;2023-07-13T06:14:26;24.10;68.50
47174;DHT22;36730;49.036;9.094;2023-07-13T06:16:52;24.00;67.80
47174;DHT22;36730;49.036;9.094;2023-07-13T06:19:18;24.00;68.30
47174;DHT22;36730;49.036;9.094;2023-07-13T06:21:43;23.90;68.00
47174;DHT22;36730;49.036;9.094;2023-07-13T06:24:09;24.00;69.20
47174;DHT22;36730;49.036;9.094;2023-07-13T06:26:34;24.00;68.40
47174;DHT22;36730;49.036;9.094;2023-07-13T06:29:00;24.00;69.90
47174;DHT22;36730;49.036;9.094;2023-07-13T06:31:25;24.00;68.90
47174;DHT22;36730;49.036;9.094;2023-07-13T06:33:51;24.00;67.90
47174;DHT22;36730;49.036;9.094;2023-07-13T06:36:16;24.10;66.90
47174;DHT22;36730;49.036;9.094;2023-07-13T06:38:42;24.10;67.30
47174;DHT22;36730;49.036;9.094;2023-07-13T06:41:07;24.10;66.60
47174;DHT22;36730;49.036;9.094;2023-07-13T06:43:33;24.10;65.90
47174;DHT22;36730;49.036;9.094;2023-07-13T06:45:59;24.20;65.10
47174;DHT22;36730;49.036;9.094;2023-07-13T06:48:25;24.20;63.90
47174;DHT22;36730;49.036;9.094;2023-07-13T06:50:50;24.20;61.80
47174;DHT22;36730;49.036;9.094;2023-07-13T06:53:17;24.30;61.10
47174;DHT22;36730;49.036;9.094;2023-07-13T06:55:43;24.40;60.30
47174;DHT22;36730;49.036;9.094;2023-07-13T06:58:08;24.40;58.40
47174;DHT22;36730;49.036;9.094;2023-07-13T07:00:34;24.50;59.10
47174;DHT22;36730;49.036;9.094;2023-07-13T07:02:59;24.50;59.50
47174;DHT22;36730;49.036;9.094;2023-07-13T07:05:25;24.60;59.30
47174;DHT22;36730;49.036;9.094;2023-07-13T07:07:51;24.60;58.90
47174;DHT22;36730;49.036;9.094;2023-07-13T07:10:17;24.60;58.00
47174;DHT22;36730;49.036;9.094;2023-07-13T07:12:43;24.60;57.90
47174;DHT22;36730;49.036;9.094;2023-07-13T07:15:08;24.60;57.90
47174;DHT22;36730;49.036;9.094;2023-07-13T07:17:34;24.60;55.80
47174;DHT22;36730;49.036;9.094;2023-07-13T07:19:59;24.70;56.40
47174;DHT22;36730;49.036;9.094;2023-07-13T07:22:25;24.70;60.00
47174;DHT22;36730;49.036;9.094;2023-07-13T07:24:52;24.80;56.60
47174;DHT22;36730;49.036;9.094;2023-07-13T07:27:18;24.80;56.60
47174;DHT22;36730;49.036;9.094;2023-07-13T07:29:43;24.80;55.10
47174;DHT22;36730;49.036;9.094;2023-07-13T07:32:09;24.80;55.30
47174;DHT22;36730;49.036;9.094;2023-07-13T07:34:34;24.90;55.30
47174;DHT22;36730;49.036;9.094;2023-07-13T07:37:00;24.90;55.00
47174;DHT22;36730;49.036;9.094;2023-07-13T07:39:26;25.00;54.30
47174;DHT22;36730;49.036;9.094;2023-07-13T07:41:52;25.10;53.80
47174;DHT22;36730;49.036;9.094;2023-07-13T07:44:17;25.10;53.90
47174;DHT22;36730;49.036;9.094;2023-07-13T07:46:43;25.10;53.70
47174;DHT22;36730;49.036;9.094;2023-07-13T07:49:08;25.10;54.60
47174;DHT22;36730;49.036;9.094;2023-07-13T07:51:34;25.20;53.50
47174;DHT22;36730;49.036;9.094;2023-07-13T07:53:59;25.20;54.30
47174;DHT22;36730;49.036;9.094;2023-07-13T07:56:25;25.30;54.20
47174;DHT22;36730;49.036;9.094;2023-07-13T07:58:50;25.30;53.60
47174;DHT22;36730;49.036;9.094;2023-07-13T08:01:16;25.30;52.90
47174;DHT22;36730;49.036;9.094;2023-07-13T08:03:41;25.40;52.00
47174;DHT22;36730;49.036;9.094;2023-07-13T08:06:07;25.40;52.50
47174;DHT22;36730;49.036;9.094;2023-07-13T08:08:33;25.40;52.30
47174;DHT22;36730;49.036;9.094;2023-07-13T08:11:02;25.40;52.50
47174;DHT22;36730;49.036;9.094;2023-07-13T08:13:27;25.40;52.20
47174;DHT22;36730;49.036;9.094;2023-07-13T08:15:53;25.50;52.70
47174;DHT22;36730;49.036;9.094;2023-07-13T08:18:18;25.50;52.40
47174;DHT22;36730;49.036;9.094;2023-07-13T08:20:44;25.60;53.20
47174;DHT22;36730;49.036;9.094;2023-07-13T08:23:10;25.60;52.40
47174;DHT22;36730;49.036;9.094;2023-07-13T08:25:35;25.60;52.60
47174;DHT22;36730;49.036;9.094;2023-07-13T08:28:02;25.70;52.00
47174;DHT22;36730;49.036;9.094;2023-07-13T08:30:28;25.70;52.50
47174;DHT22;36730;49.036;9.094;2023-07-13T08:32:53;25.70;53.20
47174;DHT22;36730;49.036;9.094;2023-07-13T08:35:19;25.80;53.50
47174;DHT22;36730;49.036;9.094;2023-07-13T08:37:44;25.80;53.30
47174;DHT22;36730;49.036;9.094;2023-07-13T08:40:10;25.90;53.80
47174;DHT22;36730;49.036;9.094;2023-07-13T08:47:44;26.10;52.80
47174;DHT22;36730;49.036;9.094;2023-07-13T08:50:11;26.10;52.70
47174;DHT22;36730;49.036;9.094;2023-07-13T08:52:39;26.20;52.30
47174;DHT22;36730;49.036;9.094;2023-07-13T08:55:09;26.20;52.50
47174;DHT22;36730;49.036;9.094;2023-07-13T08:57:37;26.30;52.40
47174;DHT22;36730;49.036;9.094;2023-07-13T09:00:03;26.30;51.70
47174;DHT22;36730;49.036;9.094;2023-07-13T09:05:03;26.40;51.90
47174;DHT22;36730;49.036;9.094;2023-07-13T09:07:41;26.50;51.60
47174;DHT22;36730;49.036;9.094;2023-07-13T09:17:51;26.60;51.60
47174;DHT22;36730;49.036;9.094;2023-07-13T09:20:37;26.60;51.40
47174;DHT22;36730;49.036;9.094;2023-07-13T09:23:05;26.50;51.10
47174;DHT22;36730;49.036;9.094;2023-07-13T09:25:33;26.60;51.10
47174;DHT22;36730;49.036;9.094;2023-07-13T09:28:00;26.60;51.30
47174;DHT22;36730;49.036;9.094;2023-07-13T09:30:36;26.70;51.10
47174;DHT22;36730;49.036;9.094;2023-07-13T09:33:03;26.70;51.40
47174;DHT22;36730;49.036;9.094;2023-07-13T09:35:29;26.80;51.00
47174;DHT22;36730;49.036;9.094;2023-07-13T09:37:59;26.80;50.90
47174;DHT22;36730;49.036;9.094;2023-07-13T09:40:32;26.80;51.30
47174;DHT22;36730;49.036;9.094;2023-07-13T09:42:59;26.90;50.60
47174;DHT22;36730;49.036;9.094;2023-07-13T09:45:26;26.90;50.60
47174;DHT22;36730;49.036;9.094;2023-07-13T09:47:58;26.90;51.00
47174;DHT22;36730;49.036;9.094;2023-07-13T09:50:24;26.90;51.10
47174;DHT22;36730;49.036;9.094;2023-07-13T09:52:49;26.90;50.90
47174;DHT22;36730;49.036;9.094;2023-07-13T09:55:32;26.90;50.10
47174;DHT22;36730;49.036;9.094;2023-07-13T09:58:41;27.00;50.90
47174;DHT22;36730;49.036;9.094;2023-07-13T10:00:59;27.10;51.50
47174;DHT22;36730;49.036;9.094;2023-07-13T10:03:29;27.20;50.20
47174;DHT22;36730;49.036;9.094;2023-07-13T10:05:58;27.30;50.40
47174;DHT22;36730;49.036;9.094;2023-07-13T10:08:28;27.30;49.80
47174;DHT22;36730;49.036;9.094;2023-07-13T10:13:43;27.40;49.30
47174;DHT22;36730;49.036;9.094;2023-07-13T10:16:09;27.40;49.00
47174;DHT22;36730;49.036;9.094;2023-07-13T10:18:39;27.60;49.00
47174;DHT22;36730;49.036;9.094;2023-07-13T10:21:12;27.60;48.50
47174;DHT22;36730;49.036;9.094;2023-07-13T10:23:39;27.60;48.30
47174;DHT22;36730;49.036;9.094;2023-07-13T10:26:04;27.60;48.70
47174;DHT22;36730;49.036;9.094;2023-07-13T10:28:35;27.70;48.70
47174;DHT22;36730;49.036;9.094;2023-07-13T10:31:01;27.80;49.00
47174;DHT22;36730;49.036;9.094;2023-07-13T10:33:27;27.80;49.10
47174;DHT22;36730;49.036;9.094;2023-07-13T10:36:05;27.80;48.20
47174;DHT22;36730;49.036;9.094;2023-07-13T10:38:34;27.90;47.30
47174;DHT22;36730;49.036;9.094;2023-07-13T10:41:04;27.90;48.00
47174;DHT22;36730;49.036;9.094;2023-07-13T10:45:57;27.90;48.80
47174;DHT22;36730;49.036;9.094;2023-07-13T10:48:24;28.00;47.70
47174;DHT22;36730;49.036;9.094;2023-07-13T10:50:50;28.00;47.30
47174;DHT22;36730;49.036;9.094;2023-07-13T10:59:01;28.00;46.90
47174;DHT22;36730;49.036;9.094;2023-07-13T11:01:11;28.00;47.00
47174;DHT22;36730;49.036;9.094;2023-07-13T11:08:35;28.10;47.20
47174;DHT22;36730;49.036;9.094;2023-07-13T11:11:02;28.10;47.60
47174;DHT22;36730;49.036;9.094;2023-07-13T11:13:39;28.10;48.10
47174;DHT22;36730;49.036;9.094;2023-07-13T11:18:49;28.20;47.50
47174;DHT22;36730;49.036;9.094;2023-07-13T11:21:16;28.20;47.40
47174;DHT22;36730;49.036;9.094;2023-07-13T11:23:42;28.20;47.30
47174;DHT22;36730;49.036;9.094;2023-07-13T11:28:52;28.20;46.80
47174;DHT22;36730;49.036;9.094;2023-07-13T11:31:18;28.20;46.90
47174;DHT22;36730;49.036;9.094;2023-07-13T11:33:53;28.30;46.70
47174;DHT22;36730;49.036;9.094;2023-07-13T11:36:21;28.30;46.40
47174;DHT22;36730;49.036;9.094;2023-07-13T11:38:55;28.40;47.00
47174;DHT22;36730;49.036;9.094;2023-07-13T11:41:27;28.40;46.30
47174;DHT22;36730;49.036;9.094;2023-07-13T11:43:54;28.40;46.10
47174;DHT22;36730;49.036;9.094;2023-07-13T11:46:26;28.50;46.10
47174;DHT22;36730;49.036;9.094;2023-07-13T11:48:52;28.50;46.30
47174;DHT22;36730;49.036;9.094;2023-07-13T11:51:21;28.60;47.20
47174;DHT22;36730;49.036;9.094;2023-07-13T11:53:48;28.60;46.00
47174;DHT22;36730;49.036;9.094;2023-07-13T11:56:14;28.70;46.10
47174;DHT22;36730;49.036;9.094;2023-07-13T11:58:40;28.70;46.30
47174;DHT22;36730;49.036;9.094;2023-07-13T12:01:05;28.70;45.10
47174;DHT22;36730;49.036;9.094;2023-07-13T12:03:32;28.70;44.40
47174;DHT22;36730;49.036;9.094;2023-07-13T12:06:02;28.70;44.60
47174;DHT22;36730;49.036;9.094;2023-07-13T12:08:31;28.70;43.60
47174;DHT22;36730;49.036;9.094;2023-07-13T12:10:58;28.80;44.20
47174;DHT22;36730;49.036;9.094;2023-07-13T12:13:24;28.80;44.90
47174;DHT22;36730;49.036;9.094;2023-07-13T12:15:51;28.80;44.30
47174;DHT22;36730;49.036;9.094;2023-07-13T12:18:21;28.90;43.90
47174;DHT22;36730;49.036;9.094;2023-07-13T12:20:47;28.90;44.00
47174;DHT22;36730;49.036;9.094;2023-07-13T12:25:44;28.90;43.20
47174;DHT22;36730;49.036;9.094;2023-07-13T12:28:20;29.00;42.90
47174;DHT22;36730;49.036;9.094;2023-07-13T12:30:47;29.00;43.60
47174;DHT22;36730;49.036;9.094;2023-07-13T12:33:13;29.00;43.20
47174;DHT22;36730;49.036;9.094;2023-07-13T12:35:40;29.00;43.10
47174;DHT22;36730;49.036;9.094;2023-07-13T12:38:08;29.10;44.50
47174;DHT22;36730;49.036;9.094;2023-07-13T12:40:35;29.10;43.90
47174;DHT22;36730;49.036;9.094;2023-07-13T12:43:02;29.10;43.80
47174;DHT22;36730;49.036;9.094;2023-07-13T12:45:32;29.10;43.70
47174;DHT22;36730;49.036;9.094;2023-07-13T12:47:59;29.10;43.40
47174;DHT22;36730;49.036;9.094;2023-07-13T12:50:29;29.10;44.10
47174;DHT22;36730;49.036;9.094;2023-07-13T12:52:59;29.10;43.50
47174;DHT22;36730;49.036;9.094;2023-07-13T12:55:26;29.10;43.90
47174;DHT22;36730;49.036;9.094;2023-07-13T12:57:55;29.10;43.20
47174;DHT22;36730;49.036;9.094;2023-07-13T13:00:25;29.10;45.00
47174;DHT22;36730;49.036;9.094;2023-07-13T13:02:53;29.10;43.30
47174;DHT22;36730;49.036;9.094;2023-07-13T13:05:18;29.20;43.70
47174;DHT22;36730;49.036;9.094;2023-07-13T13:07:49;29.20;43.30
47174;DHT22;36730;49.036;9.094;2023-07-13T13:10:14;29.20;43.20
47174;DHT22;36730;49.036;9.094;2023-07-13T13:12:40;29.20;44.60
47174;DHT22;36730;49.036;9.094;2023-07-13T13:15:08;29.20;43.60
47174;DHT22;36730;49.036;9.094;2023-07-13T13:17:33;29.20;44.40
47174;DHT22;36730;49.036;9.094;2023-07-13T13:19:59;29.20;43.80
47174;DHT22;36730;49.036;9.094;2023-07-13T13:22:25;29.20;43.50
47174;DHT22;36730;49.036;9.094;2023-07-13T13:24:50;29.10;43.90
47174;DHT22;36730;49.036;9.094;2023-07-13T13:27:22;29.10;43.90
47174;DHT22;36730;49.036;9.094;2023-07-13T13:29:49;29.20;44.40
47174;DHT22;36730;49.036;9.094;2023-07-13T13:32:16;29.20;43.60
47174;DHT22;36730;49.036;9.094;2023-07-13T13:34:42;29.10;44.10
47174;DHT22;36730;49.036;9.094;2023-07-13T13:37:25;29.10;43.30
47174;DHT22;36730;49.036;9.094;2023-07-13T13:39:51;29.00;43.70
47174;DHT22;36730;49.036;9.094;2023-07-13T13:42:17;29.10;44.30
47174;DHT22;36730;49.036;9.094;2023-07-13T13:44:42;29.10;44.20
47174;DHT22;36730;49.036;9.094;2023-07-13T13:52:40;29.00;44.30
47174;DHT22;36730;49.036;9.094;2023-07-13T13:55:12;29.00;44.40
47174;DHT22;36730;49.036;9.094;2023-07-13T13:57:38;28.90;44.60
47174;DHT22;36730;49.036;9.094;2023-07-13T14:00:04;28.90;44.90
47174;DHT22;36730;49.036;9.094;2023-07-13T14:02:30;28.90;44.90
47174;DHT22;36730;49.036;9.094;2023-07-13T14:04:58;28.90;44.60
47174;DHT22;36730;49.036;9.094;2023-07-13T14:07:25;28.90;45.20
47174;DHT22;36730;49.036;9.094;2023-07-13T14:09:52;29.00;44.50
47174;DHT22;36730;49.036;9.094;2023-07-13T14:12:17;29.00;44.90
47174;DHT22;36730;49.036;9.094;2023-07-13T14:14:43;29.00;44.10
47174;DHT22;36730;49.036;9.094;2023-07-13T14:17:18;29.00;43.60
47174;DHT22;36730;49.036;9.094;2023-07-13T14:19:47;29.00;44.30
47174;DHT22;36730;49.036;9.094;2023-07-13T14:22:16;29.00;44.50
47174;DHT22;36730;49.036;9.094;2023-07-13T14:24:41;28.90;44.30
47174;DHT22;36730;49.036;9.094;2023-07-13T14:27:08;28.90;44.20
47174;DHT22;36730;49.036;9.094;2023-07-13T14:29:34;28.90;44.70
47174;DHT22;36730;49.036;9.094;2023-07-13T14:31:59;28.80;44.80
47174;DHT22;36730;49.036;9.094;2023-07-13T14:34:25;28.80;44.20
47174;DHT22;36730;49.036;9.094;2023-07-13T14:36:50;28.80;44.10
47174;DHT22;36730;49.036;9.094;2023-07-13T14:41:42;28.70;44.40
47174;DHT22;36730;49.036;9.094;2023-07-13T14:44:17;28.60;44.10
47174;DHT22;36730;49.036;9.094;2023-07-13T14:46:44;28.60;44.50
47174;DHT22;36730;49.036;9.094;2023-07-13T14:49:28;28.50;44.20
47174;DHT22;36730;49.036;9.094;2023-07-13T14:51:55;28.60;44.60
47174;DHT22;36730;49.036;9.094;2023-07-13T14:54:22;28.50;44.00
47174;DHT22;36730;49.036;9.094;2023-07-13T14:56:48;28.50;44.20
47174;DHT22;36730;49.036;9.094;2023-07-13T14:59:13;28.50;44.40
47174;DHT22;36730;49.036;9.094;2023-07-13T15:01:39;28.60;44.70
47174;DHT22;36730;49.036;9.094;2023-07-13T15:04:05;28.50;44.10
47174;DHT22;36730;49.036;9.094;2023-07-13T15:06:35;28.50;44.40
47174;DHT22;36730;49.036;9.094;2023-07-13T15:09:16;28.50;44.50
47174;DHT22;36730;49.036;9.094;2023-07-13T15:11:42;28.60;44.30
47174;DHT22;36730;49.036;9.094;2023-07-13T15:14:07;28.50;44.10
47174;DHT22;36730;49.036;9.094;2023-07-13T15:16:33;28.50;43.60
47174;DHT22;36730;49.036;9.094;2023-07-13T15:18:59;28.50;44.10
47174;DHT22;36730;49.036;9.094;2023-07-13T15:21:25;28.50;44.10
47174;DHT22;36730;49.036;9.094;2023-07-13T15:23:53;28.50;44.00
47174;DHT22;36730;49.036;9.094;2023-07-13T15:26:19;28.50;44.40
47174;DHT22;36730;49.036;9.094;2023-07-13T15:28:45;28.50;44.50
47174;DHT22;36730;49.036;9.094;2023-07-13T15:31:21;28.50;45.50
47174;DHT22;36730;49.036;9.094;2023-07-13T15:33:48;28.50;44.40
47174;DHT22;36730;49.036;9.094;2023-07-13T15:36:15;28.40;44.10
47174;DHT22;36730;49.036;9.094;2023-07-13T15:38:42;28.50;44.60
47174;DHT22;36730;49.036;9.094;2023-07-13T15:41:12;28.50;44.50
47174;DHT22;36730;49.036;9.094;2023-07-13T15:43:41;28.40;44.50
47174;DHT22;36730;49.036;9.094;2023-07-13T15:46:06;28.40;43.80
47174;DHT22;36730;49.036;9.094;2023-07-13T15:48:32;28.30;44.10
47174;DHT22;36730;49.036;9.094;2023-07-13T15:50:59;28.30;43.90
47174;DHT22;36730;49.036;9.094;2023-07-13T15:53:29;28.30;44.00
47174;DHT22;36730;49.036;9.094;2023-07-13T15:55:55;28.30;44.60
47174;DHT22;36730;49.036;9.094;2023-07-13T15:58:21;28.40;43.90
47174;DHT22;36730;49.036;9.094;2023-07-13T16:00:47;28.40;44.10
47174;DHT22;36730;49.036;9.094;2023-07-13T16:03:16;28.30;44.20
47174;DHT22;36730;49.036;9.094;2023-07-13T16:05:42;28.30;44.00
47174;DHT22;36730;49.036;9.094;2023-07-13T16:08:15;28.40;43.70
47174;DHT22;36730;49.036;9.094;2023-07-13T16:10:43;28.40;44.60
47174;DHT22;36730;49.036;9.094;2023-07-13T16:13:13;28.30;44.30
47174;DHT22;36730;49.036;9.094;2023-07-13T16:15:39;28.30;44.20
47174;DHT22;36730;49.036;9.094;2023-07-13T16:18:13;28.30;45.20
47174;DHT22;36730;49.036;9.094;2023-07-13T16:20:40;28.20;43.80